الصفحة الرئيسية
METAR-TAF:

METAR-TAF

مطار :

Sanikiluaq, نونافوت, كندا

دائرة عرض: 56-32N, خط طول: 079-15W, ارتفاع: 32 متر

مراقبة الطقس الحالي

تاريخ ووقت الإصدار 19ساعات و 37 دقيقة قبل الساعة 22:00UTC
ريح 19 عقدة من الغرب/الشمال الغربي تتزايد حتى 25 عقدة
درجة الحرارة 3°درجة مئوية
الرطوبة 93%
ضغط 1010 hPa
الرؤية: 11.3 كم
ملبد بالغيوم على ارتفاع 700 قدم

METAR: CYSK 142200Z 29019G25KT 7SM OVC007 03/02 A2983 RMK SF8 LAST STFD OBS/NXT 171200Z SLP104

زمن: 13:37 (17:37 UTC)


TAF: مفقودة

أرصاد الطقس والتوقعات من أكثر من 4000 مطار (تقارير الطقس للمطار METAR والتنبؤ بالطقس بالمطارTAF).

المحطات المتاحة هي النقط الصفراء والحمراء على الخريطة.

حرك المؤشر فوق النقطة لمعرفة اسم المحطة.

ثم انقر لمعرفة أرصاد وتوقعات الطقس.

لتغيير الخارطة: اضغط على الأزرار الخضراء مع رمز الصليب الأسود للتكبير. على الزر الأخضر مع شرطة للتصغير، أو على الأسهم الخضراء للخرائط المجاورة.


METAR-TAF: